Time;durP1;ratioP1;P1;durP2;ratioP2;P2;SDS_P1;SDS_P2;PMS_P1;PMS_P2;Temp;Humidity;BMP_temperature;BMP_pressure;BME280_temperature;BME280_humidity;BME280_pressure;Samples;Min_cycle;Max_cycle;Signal;HPM_P1;HPM_P2
2022/06/23 00:00:27;;;;;;;;;6.00;6.00;;;;;;;;5096550;27;45435;-79
2022/06/23 00:02:53;;;;;;;;;6.75;6.75;;;;;;;;5094536;27;45393;-79
2022/06/23 00:05:20;;;;;;;;;5.75;5.75;;;;;;;;5092654;27;45475;-79
2022/06/23 00:07:50;;;;;;;;;8.25;8.25;;;;;;;;5094664;27;46467;-79
2022/06/23 00:10:23;;;;;;;;;7.00;7.00;;;;;;;;5095126;27;45421;-80
2022/06/23 00:12:48;;;;;;;;;8.33;7.33;;;;;;;;5094078;27;45363;-79
2022/06/23 00:15:16;;;;;;;;;6.33;5.33;;;;;;;;5095131;27;45405;-79
2022/06/23 00:17:43;;;;;;;;;9.50;9.50;;;;;;;;5092312;27;46459;-80
2022/06/23 00:20:09;;;;;;;;;10.00;7.00;;;;;;;;5095184;27;45446;-79
2022/06/23 00:22:34;;;;;;;;;7.75;7.75;;;;;;;;5092658;27;45413;-78
2022/06/23 00:25:02;;;;;;;;;5.00;5.00;;;;;;;;5086683;27;45419;-79
2022/06/23 00:27:30;;;;;;;;;9.00;7.67;;;;;;;;5093145;27;46383;-79
2022/06/23 00:29:57;;;;;;;;;7.00;7.00;;;;;;;;5093845;27;45488;-79
2022/06/23 00:32:23;;;;;;;;;5.50;5.50;;;;;;;;5092987;27;45718;-79
2022/06/23 00:34:57;;;;;;;;;7.25;7.25;;;;;;;;5094102;27;45409;-79
2022/06/23 00:37:24;;;;;;;;;6.67;6.00;;;;;;;;5088347;27;46262;-79
2022/06/23 00:40:05;;;;;;;;;9.50;8.00;;;;;;;;5093830;27;45464;-79
2022/06/23 00:42:31;;;;;;;;;9.00;7.00;;;;;;;;5092235;27;45629;-79
2022/06/23 00:45:02;;;;;;;;;9.00;8.00;;;;;;;;5092593;27;45420;-79
2022/06/23 00:47:38;;;;;;;;;7.67;7.00;;;;;;;;5092500;27;45404;-79
2022/06/23 00:50:12;;;;;;;;;7.00;7.00;;;;;;;;5092258;27;45549;-79
2022/06/23 00:52:44;;;;;;;;;7.00;7.00;;;;;;;;5092485;27;45318;-79
2022/06/23 00:55:25;;;;;;;;;6.25;6.25;;;;;;;;5092830;27;45291;-78
2022/06/23 00:57:54;;;;;;;;;8.33;7.00;;;;;;;;5093258;27;45559;-79
2022/06/23 01:00:34;;;;;;;;;6.33;6.33;;;;;;;;5095600;27;45424;-79
2022/06/23 01:03:18;;;;;;;;;6.00;6.00;;;;;;;;5092840;27;45169;-79
2022/06/23 01:05:44;;;;;;;;;6.00;5.67;;;;;;;;5093534;27;45432;-79
2022/06/23 01:08:12;;;;;;;;;5.50;5.25;;;;;;;;5094103;27;46381;-79
2022/06/23 01:10:57;;;;;;;;;8.00;6.00;;;;;;;;5091233;27;45583;-80
2022/06/23 01:13:35;;;;;;;;;9.00;6.00;;;;;;;;5091321;27;45488;-80
2022/06/23 01:16:06;;;;;;;;;6.00;6.00;;;;;;;;5087548;27;45382;-80
2022/06/23 01:18:35;;;;;;;;;6.67;6.00;;;;;;;;5091627;27;45778;-79
2022/06/23 01:21:12;;;;;;;;;8.00;8.00;;;;;;;;5094890;27;45475;-79
2022/06/23 01:23:44;;;;;;;;;6.00;6.00;;;;;;;;5091601;27;45505;-79
2022/06/23 01:26:16;;;;;;;;;5.25;5.25;;;;;;;;5091611;27;45458;-79
2022/06/23 01:28:41;;;;;;;;;9.00;6.33;;;;;;;;5093098;27;47266;-79
2022/06/23 01:31:12;;;;;;;;;7.33;7.33;;;;;;;;5093231;27;45428;-79
2022/06/23 01:33:41;;;;;;;;;8.00;7.67;;;;;;;;5095095;27;45373;-79
2022/06/23 01:36:13;;;;;;;;;5.67;5.67;;;;;;;;5098623;27;45325;-79
2022/06/23 01:39:13;;;;;;;;;7.00;6.33;;;;;;;;5096513;27;46513;-79
2022/06/23 01:41:41;;;;;;;;;7.25;6.25;;;;;;;;5054340;28;45574;-79
2022/06/23 01:44:09;;;;;;;;;5.00;5.00;;;;;;;;5054008;28;45720;-79
2022/06/23 01:46:36;;;;;;;;;5.00;5.00;;;;;;;;5052753;28;45677;-79
2022/06/23 01:49:09;;;;;;;;;5.00;5.00;;;;;;;;5053658;28;45656;-80
2022/06/23 01:51:42;;;;;;;;;6.00;6.00;;;;;;;;5055572;28;45484;-80
2022/06/23 01:54:13;;;;;;;;;8.25;7.00;;;;;;;;5050336;28;45391;-79
2022/06/23 01:56:49;;;;;;;;;7.67;7.67;;;;;;;;5054605;28;45508;-80
2022/06/23 01:59:34;;;;;;;;;7.25;5.25;;;;;;;;5054633;28;45554;-80
2022/06/23 02:01:59;;;;;;;;;6.00;6.00;;;;;;;;5055068;28;45548;-80
2022/06/23 02:04:31;;;;;;;;;9.75;8.50;;;;;;;;5050197;28;45450;-79
2022/06/23 02:06:58;;;;;;;;;6.25;6.00;;;;;;;;5055012;28;45654;-80
2022/06/23 02:09:23;;;;;;;;;6.25;6.25;;;;;;;;5054835;28;46179;-80
2022/06/23 02:11:52;;;;;;;;;6.00;5.75;;;;;;;;5053256;28;45490;-80
2022/06/23 02:14:36;;;;;;;;;7.00;5.00;;;;;;;;5052964;28;45414;-80
2022/06/23 02:17:36;;;;;;;;;7.67;7.67;;;;;;;;5090197;27;45478;-80
2022/06/23 02:20:22;;;;;;;;;5.50;5.50;;;;;;;;5052384;28;45380;-79
2022/06/23 02:22:48;;;;;;;;;5.33;5.33;;;;;;;;5042619;28;45599;-79
2022/06/23 02:25:13;;;;;;;;;8.00;8.00;;;;;;;;5053277;28;45535;-80
2022/06/23 02:27:44;;;;;;;;;6.00;5.00;;;;;;;;5053724;28;45493;-79
2022/06/23 02:30:16;;;;;;;;;5.25;5.25;;;;;;;;5052981;28;46504;-78
2022/06/23 02:32:57;;;;;;;;;5.75;5.75;;;;;;;;5051553;28;45651;-79
2022/06/23 02:35:27;;;;;;;;;6.00;6.00;;;;;;;;5054553;28;45473;-80
2022/06/23 02:37:55;;;;;;;;;5.25;5.25;;;;;;;;5053243;28;45621;-79
2022/06/23 02:40:30;;;;;;;;;7.00;7.00;;;;;;;;5052267;28;46150;-79
2022/06/23 02:43:02;;;;;;;;;6.00;6.00;;;;;;;;5052438;28;45427;-79
2022/06/23 02:45:31;;;;;;;;;5.00;5.00;;;;;;;;5055073;28;45285;-79
2022/06/23 02:48:16;;;;;;;;;5.00;5.00;;;;;;;;5053764;28;45284;-80
2022/06/23 02:50:58;;;;;;;;;7.75;7.25;;;;;;;;5049046;28;46652;-79
2022/06/23 02:53:42;;;;;;;;;7.00;6.00;;;;;;;;5062570;27;45530;-80
2022/06/23 02:56:16;;;;;;;;;6.25;6.25;;;;;;;;5095660;27;46190;-79
2022/06/23 02:59:02;;;;;;;;;5.50;5.50;;;;;;;;5094280;27;45499;-79
2022/06/23 03:01:27;;;;;;;;;5.75;5.75;;;;;;;;5094291;27;46617;-79
2022/06/23 03:03:58;;;;;;;;;6.00;5.50;;;;;;;;5093206;27;45438;-79
2022/06/23 03:06:28;;;;;;;;;6.00;5.00;;;;;;;;5097416;27;45331;-79
2022/06/23 03:08:57;;;;;;;;;7.25;6.50;;;;;;;;5096372;27;45576;-79
2022/06/23 03:14:18;;;;;;;;;4.33;4.00;;;;;;;;5095364;27;45406;-80
2022/06/23 03:16:46;;;;;;;;;5.00;5.00;;;;;;;;5095710;27;45456;-80
2022/06/23 03:19:21;;;;;;;;;4.67;4.67;;;;;;;;5094804;27;45609;-79
2022/06/23 03:22:16;;;;;;;;;6.75;6.75;;;;;;;;5094070;27;46872;-79
2022/06/23 03:24:47;;;;;;;;;5.75;5.75;;;;;;;;5070133;27;45498;-79
2022/06/23 03:27:28;;;;;;;;;6.00;6.00;;;;;;;;5097172;27;45427;-79
2022/06/23 03:29:57;;;;;;;;;6.00;5.00;;;;;;;;5093413;27;48981;-79
2022/06/23 03:32:27;;;;;;;;;5.00;4.33;;;;;;;;5093097;27;45924;-79
2022/06/23 03:34:54;;;;;;;;;7.00;5.33;;;;;;;;5095179;27;45480;-80
2022/06/23 03:37:37;;;;;;;;;6.00;6.00;;;;;;;;5093087;27;45358;-79
2022/06/23 03:42:59;;;;;;;;;5.33;5.33;;;;;;;;5094518;27;45673;-79
2022/06/23 03:45:24;;;;;;;;;5.33;5.00;;;;;;;;5095664;27;45591;-80
2022/06/23 03:47:55;;;;;;;;;4.00;4.00;;;;;;;;5094790;27;45326;-79
2022/06/23 03:50:27;;;;;;;;;6.00;6.00;;;;;;;;5093545;27;45453;-80
2022/06/23 03:52:57;;;;;;;;;5.75;5.50;;;;;;;;5094634;27;45417;-80
2022/06/23 03:55:28;;;;;;;;;4.75;4.75;;;;;;;;5095866;27;45424;-78
2022/06/23 03:58:11;;;;;;;;;5.67;5.67;;;;;;;;5093599;27;45358;-79
2022/06/23 04:00:39;;;;;;;;;5.33;5.33;;;;;;;;5092441;27;45451;-80
2022/06/23 04:03:25;;;;;;;;;5.67;5.67;;;;;;;;5096171;27;45461;-79
2022/06/23 04:05:56;;;;;;;;;7.00;7.00;;;;;;;;5093576;27;45489;-80
2022/06/23 04:08:26;;;;;;;;;5.00;5.00;;;;;;;;5094087;27;45487;-80
2022/06/23 04:10:53;;;;;;;;;5.00;5.00;;;;;;;;5093099;27;45380;-80
2022/06/23 04:13:23;;;;;;;;;8.00;8.00;;;;;;;;5094350;27;46430;-80
2022/06/23 04:15:50;;;;;;;;;5.67;5.67;;;;;;;;5094388;27;45489;-80
2022/06/23 04:18:27;;;;;;;;;4.00;4.00;;;;;;;;5096417;27;45373;-80
2022/06/23 04:20:54;;;;;;;;;6.00;6.00;;;;;;;;5093555;27;45767;-79
2022/06/23 04:23:20;;;;;;;;;6.00;5.00;;;;;;;;5092535;27;46092;-79
2022/06/23 04:25:48;;;;;;;;;5.33;5.00;;;;;;;;5093756;27;45315;-80
2022/06/23 04:28:25;;;;;;;;;5.00;5.00;;;;;;;;5094351;27;45358;-79
2022/06/23 04:30:52;;;;;;;;;5.33;5.33;;;;;;;;5093659;27;45922;-80
2022/06/23 04:33:20;;;;;;;;;5.00;5.00;;;;;;;;5095733;27;46355;-80
2022/06/23 04:35:47;;;;;;;;;5.67;5.67;;;;;;;;5091774;27;45393;-80
2022/06/23 04:38:31;;;;;;;;;6.33;6.00;;;;;;;;5094235;27;45421;-80
2022/06/23 04:41:03;;;;;;;;;6.00;6.00;;;;;;;;5093927;27;45487;-80
2022/06/23 04:43:41;;;;;;;;;4.67;4.67;;;;;;;;5094199;27;46708;-79
2022/06/23 04:46:09;;;;;;;;;6.33;5.67;;;;;;;;5091845;27;45350;-80
2022/06/23 04:48:34;;;;;;;;;4.00;4.00;;;;;;;;5094732;27;45378;-80
2022/06/23 04:51:03;;;;;;;;;5.75;5.75;;;;;;;;5095880;27;45475;-79
2022/06/23 04:53:37;;;;;;;;;5.67;5.67;;;;;;;;5093811;27;45655;-79
2022/06/23 04:56:18;;;;;;;;;5.00;5.00;;;;;;;;5093297;27;45420;-79
2022/06/23 04:58:52;;;;;;;;;6.00;6.00;;;;;;;;5094361;27;45489;-79
2022/06/23 05:01:18;;;;;;;;;4.00;4.00;;;;;;;;5087513;27;45489;-80
2022/06/23 05:03:48;;;;;;;;;6.33;6.33;;;;;;;;5094347;27;46575;-80
2022/06/23 05:06:13;;;;;;;;;5.67;5.00;;;;;;;;5095798;27;45456;-79
2022/06/23 05:08:41;;;;;;;;;3.67;3.67;;;;;;;;5094435;27;45618;-80
2022/06/23 05:11:17;;;;;;;;;4.67;4.67;;;;;;;;5097176;27;45453;-80
2022/06/23 05:13:42;;;;;;;;;6.00;6.00;;;;;;;;5095855;27;46796;-80
2022/06/23 05:16:10;;;;;;;;;5.33;5.33;;;;;;;;5097099;27;45616;-81
2022/06/23 05:18:42;;;;;;;;;7.00;6.00;;;;;;;;5098523;27;45394;-80
2022/06/23 05:21:09;;;;;;;;;6.33;5.67;;;;;;;;5098504;27;45507;-79
2022/06/23 05:23:46;;;;;;;;;7.33;7.33;;;;;;;;5096903;27;46294;-79
2022/06/23 05:26:23;;;;;;;;;6.33;6.33;;;;;;;;5090447;27;45493;-80
2022/06/23 05:28:50;;;;;;;;;6.00;6.00;;;;;;;;5095548;27;45456;-79
2022/06/23 05:31:20;;;;;;;;;6.67;6.67;;;;;;;;5095910;27;45296;-79
2022/06/23 05:33:50;;;;;;;;;5.50;5.50;;;;;;;;5097985;27;47027;-81
2022/06/23 05:36:26;;;;;;;;;5.25;5.25;;;;;;;;5097487;27;45358;-79
2022/06/23 05:39:01;;;;;;;;;4.00;4.00;;;;;;;;5094606;27;45402;-79
2022/06/23 05:41:38;;;;;;;;;5.00;5.00;;;;;;;;5096820;27;45463;-79
2022/06/23 05:44:07;;;;;;;;;6.67;5.67;;;;;;;;5096455;27;46329;-80
2022/06/23 05:46:33;;;;;;;;;5.00;5.00;;;;;;;;5096218;27;45489;-80
2022/06/23 05:49:01;;;;;;;;;5.00;5.00;;;;;;;;5098180;27;45468;-80
2022/06/23 05:51:34;;;;;;;;;7.00;5.00;;;;;;;;5099163;27;45150;-80
2022/06/23 05:54:05;;;;;;;;;6.67;6.00;;;;;;;;5096862;27;45308;-80
2022/06/23 05:56:50;;;;;;;;;5.33;5.33;;;;;;;;5095735;27;45338;-79
2022/06/23 05:59:21;;;;;;;;;5.00;5.00;;;;;;;;5096612;27;45456;-79
2022/06/23 06:02:10;;;;;;;;;5.00;5.00;;;;;;;;5095990;27;45401;-75
2022/06/23 06:04:41;;;;;;;;;4.67;4.67;;;;;;;;5089953;27;45556;-77
2022/06/23 06:07:10;;;;;;;;;4.75;4.75;;;;;;;;5094537;27;45287;-76
2022/06/23 06:09:40;;;;;;;;;6.00;6.00;;;;;;;;5097375;27;45407;-76
2022/06/23 06:12:13;;;;;;;;;5.00;5.00;;;;;;;;5097594;27;45433;-77
2022/06/23 06:14:41;;;;;;;;;5.33;5.33;;;;;;;;5093193;27;47479;-77
2022/06/23 06:17:09;;;;;;;;;6.67;6.67;;;;;;;;5096755;27;45395;-76
2022/06/23 06:19:34;;;;;;;;;5.00;5.00;;;;;;;;5093753;27;45377;-76
2022/06/23 06:22:11;;;;;;;;;7.00;6.75;;;;;;;;5089464;27;45313;-75
2022/06/23 06:24:40;;;;;;;;;7.00;6.50;;;;;;;;5093612;27;46617;-70
2022/06/23 06:27:09;;;;;;;;;7.75;7.00;;;;;;;;5096882;27;45542;-72
2022/06/23 06:29:35;;;;;;;;;12.00;9.00;;;;;;;;5096224;27;45514;-70
2022/06/23 06:32:07;;;;;;;;;7.00;7.00;;;;;;;;5095238;27;45425;-74
2022/06/23 06:34:38;;;;;;;;;6.33;6.33;;;;;;;;5095171;27;46251;-74
2022/06/23 06:37:06;;;;;;;;;7.00;7.00;;;;;;;;5093271;27;45490;-74
2022/06/23 06:39:37;;;;;;;;;7.75;7.75;;;;;;;;5096506;27;45389;-74
2022/06/23 06:42:07;;;;;;;;;8.50;7.00;;;;;;;;5096759;27;45321;-74
2022/06/23 06:44:34;;;;;;;;;8.00;8.00;;;;;;;;5093650;27;47493;-73
2022/06/23 06:46:59;;;;;;;;;9.00;7.75;;;;;;;;5093881;27;45512;-74
2022/06/23 06:49:28;;;;;;;;;7.75;6.50;;;;;;;;5095252;27;45292;-74
2022/06/23 06:51:54;;;;;;;;;9.50;7.00;;;;;;;;5096363;27;46003;-74
2022/06/23 06:54:23;;;;;;;;;10.75;6.25;;;;;;;;5097483;27;45575;-74
2022/06/23 06:56:56;;;;;;;;;10.00;9.00;;;;;;;;5093709;27;45761;-74
2022/06/23 06:59:24;;;;;;;;;8.00;7.75;;;;;;;;5094915;27;45487;-74
2022/06/23 07:01:53;;;;;;;;;8.33;7.00;;;;;;;;5094965;27;45528;-73
2022/06/23 07:04:41;;;;;;;;;7.50;6.50;;;;;;;;5095233;27;45432;-74
2022/06/23 07:07:09;;;;;;;;;7.00;7.00;;;;;;;;5094128;27;45429;-74
2022/06/23 07:09:48;;;;;;;;;8.00;8.00;;;;;;;;5096528;27;45528;-74
2022/06/23 07:12:25;;;;;;;;;9.25;8.00;;;;;;;;5089085;27;45356;-74
2022/06/23 07:14:51;;;;;;;;;7.33;7.00;;;;;;;;5096319;27;45425;-74
2022/06/23 07:17:21;;;;;;;;;9.00;8.50;;;;;;;;5095793;27;45224;-74
2022/06/23 07:19:49;;;;;;;;;7.00;7.00;;;;;;;;5095383;27;45430;-74
2022/06/23 07:22:20;;;;;;;;;6.25;6.25;;;;;;;;5093821;27;45329;-74
2022/06/23 07:24:51;;;;;;;;;7.75;6.25;;;;;;;;5095478;27;46099;-73
2022/06/23 07:27:20;;;;;;;;;7.00;7.00;;;;;;;;5095369;27;45525;-74
2022/06/23 07:29:48;;;;;;;;;7.33;6.33;;;;;;;;5094574;27;45815;-74
2022/06/23 07:32:18;;;;;;;;;8.75;8.25;;;;;;;;5094668;27;45538;-74
2022/06/23 07:34:58;;;;;;;;;8.75;7.50;;;;;;;;5094460;27;45384;-74
2022/06/23 07:37:31;;;;;;;;;6.25;6.00;;;;;;;;5094484;27;45618;-73
2022/06/23 07:39:59;;;;;;;;;7.00;7.00;;;;;;;;5094215;27;45520;-74
2022/06/23 07:42:42;;;;;;;;;9.25;7.00;;;;;;;;5096419;27;45329;-73
2022/06/23 07:45:34;;;;;;;;;6.33;6.33;;;;;;;;5095360;27;46499;-74
2022/06/23 07:47:59;;;;;;;;;5.75;5.75;;;;;;;;5090988;27;45446;-72
2022/06/23 07:50:24;;;;;;;;;9.00;8.00;;;;;;;;5090637;27;45509;-72
2022/06/23 07:52:50;;;;;;;;;8.00;8.00;;;;;;;;5085202;27;45440;-73
2022/06/23 07:55:26;;;;;;;;;7.00;7.00;;;;;;;;5093909;27;46234;-73
2022/06/23 07:57:52;;;;;;;;;7.50;7.50;;;;;;;;5093483;27;45323;-72
2022/06/23 08:00:17;;;;;;;;;7.50;7.25;;;;;;;;5096543;27;45367;-72
2022/06/23 08:02:49;;;;;;;;;9.25;7.75;;;;;;;;5094018;27;45433;-72
2022/06/23 08:05:21;;;;;;;;;9.00;7.50;;;;;;;;5093785;27;46492;-73
2022/06/23 08:07:46;;;;;;;;;8.75;7.25;;;;;;;;5092640;27;45323;-72
2022/06/23 08:10:17;;;;;;;;;6.00;6.00;;;;;;;;5094195;27;45616;-73
2022/06/23 08:12:58;;;;;;;;;6.00;5.25;;;;;;;;5094460;27;45341;-72
2022/06/23 08:18:10;;;;;;;;;8.00;8.00;;;;;;;;5095120;27;45380;-73
2022/06/23 08:20:38;;;;;;;;;9.00;7.00;;;;;;;;5093973;27;45407;-72
2022/06/23 08:23:04;;;;;;;;;5.67;5.67;;;;;;;;5094248;27;45463;-72
2022/06/23 08:25:30;;;;;;;;;6.33;6.33;;;;;;;;5093355;27;45578;-72
2022/06/23 08:27:56;;;;;;;;;7.33;7.33;;;;;;;;5094926;27;45348;-72
2022/06/23 08:30:23;;;;;;;;;6.33;6.33;;;;;;;;5096386;27;45532;-72
2022/06/23 08:32:50;;;;;;;;;5.67;5.67;;;;;;;;5092606;27;45514;-72
2022/06/23 08:35:30;;;;;;;;;7.00;5.75;;;;;;;;5094458;27;47486;-72
2022/06/23 08:38:01;;;;;;;;;7.33;6.00;;;;;;;;5093517;27;45441;-72
2022/06/23 08:40:29;;;;;;;;;7.00;7.00;;;;;;;;5091700;27;45475;-72
2022/06/23 08:43:06;;;;;;;;;7.33;7.33;;;;;;;;5092044;27;45928;-73
2022/06/23 08:45:39;;;;;;;;;7.67;7.67;;;;;;;;5091874;27;46456;-73
2022/06/23 08:48:07;;;;;;;;;10.00;8.00;;;;;;;;5093239;27;45389;-72
2022/06/23 08:50:35;;;;;;;;;7.50;7.50;;;;;;;;5094366;27;45550;-73
2022/06/23 08:53:05;;;;;;;;;4.50;4.25;;;;;;;;5092851;27;45455;-73
2022/06/23 08:55:42;;;;;;;;;8.00;6.00;;;;;;;;5092872;27;45499;-72
2022/06/23 08:58:15;;;;;;;;;6.50;6.00;;;;;;;;5091748;27;45520;-72
2022/06/23 09:00:54;;;;;;;;;7.25;7.25;;;;;;;;5094380;27;45367;-73
2022/06/23 09:03:24;;;;;;;;;6.00;6.00;;;;;;;;5094136;27;45586;-73
2022/06/23 09:05:54;;;;;;;;;6.67;6.67;;;;;;;;5092671;27;45434;-72
2022/06/23 09:08:37;;;;;;;;;7.33;7.33;;;;;;;;5093104;27;45460;-72
2022/06/23 09:11:09;;;;;;;;;6.25;6.25;;;;;;;;5092128;27;45329;-73
2022/06/23 09:13:53;;;;;;;;;7.00;5.00;;;;;;;;5093215;27;45568;-73
2022/06/23 09:16:36;;;;;;;;;6.00;4.50;;;;;;;;5088366;27;46274;-73
2022/06/23 09:19:24;;;;;;;;;5.33;5.33;;;;;;;;5087508;27;45540;-72
2022/06/23 09:21:52;;;;;;;;;6.67;6.67;;;;;;;;5091304;27;45390;-72
2022/06/23 09:24:37;;;;;;;;;5.00;5.00;;;;;;;;5093541;27;45771;-72
2022/06/23 09:27:03;;;;;;;;;6.00;5.50;;;;;;;;5056814;28;46684;-73
2022/06/23 09:29:28;;;;;;;;;6.00;5.00;;;;;;;;5050022;28;45620;-72
2022/06/23 09:31:53;;;;;;;;;6.50;5.00;;;;;;;;5050368;28;45384;-72
2022/06/23 09:34:36;;;;;;;;;6.00;6.00;;;;;;;;5049921;28;45534;-72
2022/06/23 09:37:13;;;;;;;;;6.00;6.00;;;;;;;;5048893;28;47040;-72
2022/06/23 09:40:00;;;;;;;;;5.50;5.00;;;;;;;;5047887;28;45491;-73
2022/06/23 09:42:44;;;;;;;;;5.33;5.33;;;;;;;;5052242;28;45460;-72
2022/06/23 09:45:18;;;;;;;;;6.00;6.00;;;;;;;;5051768;28;45556;-73
2022/06/23 09:48:02;;;;;;;;;5.33;5.33;;;;;;;;5049520;28;46320;-72
2022/06/23 09:50:27;;;;;;;;;8.33;7.33;;;;;;;;5052207;28;46011;-73
2022/06/23 09:53:07;;;;;;;;;7.33;7.33;;;;;;;;5049947;28;45534;-75
2022/06/23 09:55:38;;;;;;;;;6.00;6.00;;;;;;;;5050577;28;45558;-72
2022/06/23 09:58:09;;;;;;;;;7.00;7.00;;;;;;;;5052136;28;47614;-72
2022/06/23 10:01:01;;;;;;;;;5.33;5.00;;;;;;;;5060704;28;45371;-72
2022/06/23 10:03:32;;;;;;;;;7.25;6.00;;;;;;;;5038888;28;45482;-73
2022/06/23 10:06:03;;;;;;;;;6.33;4.67;;;;;;;;5052285;28;45637;-73
2022/06/23 10:08:46;;;;;;;;;4.00;4.00;;;;;;;;5050579;28;46173;-73
2022/06/23 10:11:15;;;;;;;;;5.75;5.75;;;;;;;;5060845;27;45455;-73
2022/06/23 10:13:43;;;;;;;;;7.00;7.00;;;;;;;;5067926;27;45549;-73
2022/06/23 10:16:21;;;;;;;;;4.75;4.75;;;;;;;;5072448;27;45616;-73
2022/06/23 10:18:52;;;;;;;;;7.00;5.00;;;;;;;;5061217;28;46606;-73
2022/06/23 10:21:17;;;;;;;;;6.00;6.00;;;;;;;;5060745;28;45450;-74
2022/06/23 10:23:54;;;;;;;;;6.50;6.50;;;;;;;;5069727;27;45446;-72
2022/06/23 10:26:19;;;;;;;;;6.00;6.00;;;;;;;;5069770;27;45606;-73
2022/06/23 10:28:44;;;;;;;;;4.25;4.00;;;;;;;;5066677;27;46793;-73
2022/06/23 10:31:09;;;;;;;;;5.50;5.25;;;;;;;;5066442;27;45470;-72
2022/06/23 10:33:40;;;;;;;;;6.50;6.50;;;;;;;;5071032;28;45570;-73
2022/06/23 10:36:09;;;;;;;;;5.75;4.00;;;;;;;;5061779;27;45540;-72
2022/06/23 10:38:34;;;;;;;;;7.00;5.25;;;;;;;;5067595;27;45555;-73
2022/06/23 10:41:24;;;;;;;;;5.33;5.33;;;;;;;;5090794;27;45338;-73
2022/06/23 10:44:08;;;;;;;;;4.67;4.67;;;;;;;;5093202;27;45556;-73
2022/06/23 10:46:40;;;;;;;;;6.00;5.67;;;;;;;;5095697;27;45411;-72
2022/06/23 10:49:11;;;;;;;;;4.67;4.67;;;;;;;;5087578;27;46157;-73
2022/06/23 10:52:00;;;;;;;;;4.33;4.00;;;;;;;;5096498;27;45266;-73
2022/06/23 10:54:40;;;;;;;;;6.00;4.50;;;;;;;;5097674;27;45347;-73
2022/06/23 10:57:05;;;;;;;;;7.00;5.00;;;;;;;;5096256;27;45564;-73
2022/06/23 10:59:33;;;;;;;;;7.33;6.33;;;;;;;;5094982;27;46225;-72
2022/06/23 11:02:17;;;;;;;;;5.00;5.00;;;;;;;;5094033;27;45503;-72
2022/06/23 11:04:45;;;;;;;;;6.00;5.00;;;;;;;;5095755;27;45408;-73
2022/06/23 11:07:13;;;;;;;;;5.33;5.33;;;;;;;;5096562;27;45422;-73
2022/06/23 11:09:44;;;;;;;;;7.00;5.33;;;;;;;;5096434;27;46611;-73
2022/06/23 11:12:24;;;;;;;;;5.50;4.50;;;;;;;;5096319;27;45468;-73
2022/06/23 11:14:57;;;;;;;;;4.33;4.33;;;;;;;;5096214;27;45557;-72
2022/06/23 11:17:29;;;;;;;;;5.67;5.67;;;;;;;;5093649;27;45648;-73
2022/06/23 11:20:03;;;;;;;;;5.00;5.00;;;;;;;;5095439;27;46410;-73
2022/06/23 11:22:36;;;;;;;;;5.00;5.00;;;;;;;;5093042;27;45417;-72
2022/06/23 11:25:01;;;;;;;;;5.00;3.67;;;;;;;;5088781;27;45327;-73
2022/06/23 11:27:45;;;;;;;;;4.00;4.00;;;;;;;;5097083;27;45214;-72
2022/06/23 11:30:17;;;;;;;;;6.00;5.00;;;;;;;;5096293;27;46467;-72
2022/06/23 11:32:58;;;;;;;;;5.00;5.00;;;;;;;;5094253;27;45506;-72
2022/06/23 11:35:38;;;;;;;;;4.67;4.67;;;;;;;;5094578;27;45536;-73
2022/06/23 11:38:04;;;;;;;;;5.00;5.00;;;;;;;;5094176;27;45426;-73
2022/06/23 11:40:45;;;;;;;;;5.00;5.00;;;;;;;;5094500;27;46185;-72
2022/06/23 11:43:22;;;;;;;;;4.33;4.33;;;;;;;;5089459;27;46131;-72
2022/06/23 11:46:00;;;;;;;;;4.00;4.00;;;;;;;;5091905;27;45451;-72
2022/06/23 11:48:25;;;;;;;;;4.00;4.00;;;;;;;;5095993;27;45385;-72
2022/06/23 11:51:05;;;;;;;;;4.00;4.00;;;;;;;;5094229;27;45622;-72
2022/06/23 11:53:57;;;;;;;;;5.00;4.33;;;;;;;;5094414;27;45530;-72
2022/06/23 11:56:38;;;;;;;;;5.00;5.00;;;;;;;;5051208;28;45553;-72
2022/06/23 11:59:25;;;;;;;;;4.00;4.00;;;;;;;;5050472;28;45270;-72
2022/06/23 12:01:53;;;;;;;;;4.00;4.00;;;;;;;;5049395;28;47275;-72
2022/06/23 12:04:30;;;;;;;;;3.00;3.00;;;;;;;;5050511;28;45589;-72
2022/06/23 12:07:01;;;;;;;;;4.00;4.00;;;;;;;;5051420;28;45633;-73
2022/06/23 12:09:28;;;;;;;;;4.67;4.67;;;;;;;;5053100;28;45586;-72
2022/06/23 12:11:54;;;;;;;;;3.33;3.33;;;;;;;;5050934;28;45670;-73
2022/06/23 12:14:20;;;;;;;;;4.00;4.00;;;;;;;;5050606;28;45328;-73
2022/06/23 12:16:52;;;;;;;;;6.33;4.33;;;;;;;;5051272;28;45522;-73
2022/06/23 12:19:19;;;;;;;;;5.00;5.00;;;;;;;;5049357;28;45763;-72
2022/06/23 12:21:49;;;;;;;;;4.00;4.00;;;;;;;;5052335;28;46652;-72
2022/06/23 12:24:17;;;;;;;;;4.67;4.67;;;;;;;;5050578;28;45408;-72
2022/06/23 12:26:46;;;;;;;;;4.33;4.00;;;;;;;;5051351;28;45473;-72
2022/06/23 12:29:11;;;;;;;;;3.33;3.33;;;;;;;;5052317;28;45563;-73
2022/06/23 12:31:39;;;;;;;;;4.00;3.00;;;;;;;;5051986;28;45479;-73
2022/06/23 12:34:14;;;;;;;;;3.00;3.00;;;;;;;;5086325;27;45401;-73
2022/06/23 12:36:45;;;;;;;;;3.67;3.67;;;;;;;;5092199;27;45307;-73
2022/06/23 12:39:17;;;;;;;;;5.00;3.00;;;;;;;;5089763;27;45535;-72
2022/06/23 12:41:46;;;;;;;;;4.00;4.00;;;;;;;;5088726;27;46831;-72
2022/06/23 12:44:23;;;;;;;;;3.00;3.00;;;;;;;;5093448;27;45484;-73
2022/06/23 12:47:07;;;;;;;;;3.67;3.67;;;;;;;;5093200;27;45282;-73
2022/06/23 12:49:49;;;;;;;;;4.33;4.33;;;;;;;;5093612;27;45503;-73
2022/06/23 12:52:38;;;;;;;;;3.67;3.67;;;;;;;;5091421;27;46494;-73
2022/06/23 12:55:15;;;;;;;;;3.33;3.33;;;;;;;;5088068;27;45518;-72
2022/06/23 12:58:09;;;;;;;;;3.67;3.67;;;;;;;;5091779;27;45251;-72
2022/06/23 13:00:38;;;;;;;;;5.00;3.67;;;;;;;;5051795;28;45445;-73
2022/06/23 13:03:15;;;;;;;;;3.00;3.00;;;;;;;;5046199;28;46742;-72
2022/06/23 13:05:52;;;;;;;;;4.33;4.33;;;;;;;;5039832;28;45533;-73
2022/06/23 13:08:21;;;;;;;;;3.00;3.00;;;;;;;;5046173;28;45506;-72
2022/06/23 13:10:49;;;;;;;;;4.67;3.67;;;;;;;;5045432;28;45486;-73
2022/06/23 13:13:20;;;;;;;;;4.00;3.00;;;;;;;;5028281;28;46580;-73
2022/06/23 13:15:53;;;;;;;;;4.00;3.00;;;;;;;;5042295;28;45427;-73
2022/06/23 13:18:26;;;;;;;;;4.00;4.00;;;;;;;;5044308;28;45429;-73
2022/06/23 13:21:10;;;;;;;;;6.33;4.00;;;;;;;;5033570;28;45490;-73
2022/06/23 13:23:37;;;;;;;;;3.00;3.00;;;;;;;;5043817;28;46291;-73
2022/06/23 13:26:15;;;;;;;;;4.33;4.33;;;;;;;;5041754;28;45481;-73
2022/06/23 13:28:42;;;;;;;;;4.00;3.00;;;;;;;;5038522;28;45501;-73
2022/06/23 13:31:15;;;;;;;;;3.00;3.00;;;;;;;;5047144;28;45364;-72
2022/06/23 13:33:49;;;;;;;;;4.00;4.00;;;;;;;;5043580;28;45637;-73
2022/06/23 13:36:26;;;;;;;;;3.33;3.33;;;;;;;;5053895;28;45392;-72
2022/06/23 13:38:56;;;;;;;;;4.00;4.00;;;;;;;;5095203;27;45402;-73
2022/06/23 13:41:35;;;;;;;;;3.33;3.33;;;;;;;;5095199;27;45535;-73
2022/06/23 13:44:24;;;;;;;;;4.67;3.00;;;;;;;;5094988;27;46285;-73
2022/06/23 13:47:00;;;;;;;;;4.00;4.00;;;;;;;;5080826;27;45374;-72
2022/06/23 13:49:35;;;;;;;;;3.67;3.67;;;;;;;;5096434;27;45422;-73
2022/06/23 13:52:12;;;;;;;;;3.67;3.67;;;;;;;;5098192;27;45690;-73
2022/06/23 13:54:49;;;;;;;;;3.00;3.00;;;;;;;;5096426;27;46388;-73
2022/06/23 13:57:17;;;;;;;;;4.33;4.33;;;;;;;;5096076;27;45235;-73
2022/06/23 13:59:51;;;;;;;;;4.00;3.00;;;;;;;;5095502;27;45442;-73
2022/06/23 14:02:17;;;;;;;;;4.33;4.00;;;;;;;;5093292;27;45443;-73
2022/06/23 14:04:54;;;;;;;;;3.00;3.00;;;;;;;;5094563;27;46553;-73
2022/06/23 14:07:25;;;;;;;;;4.00;4.00;;;;;;;;5097205;27;48505;-73
2022/06/23 14:09:57;;;;;;;;;2.00;2.00;;;;;;;;5096415;27;45570;-73
2022/06/23 14:12:25;;;;;;;;;3.33;2.67;;;;;;;;5098008;27;45508;-73
2022/06/23 14:15:14;;;;;;;;;4.00;4.00;;;;;;;;5095246;27;46510;-73
2022/06/23 14:17:39;;;;;;;;;2.00;2.00;;;;;;;;5095584;27;45437;-73
2022/06/23 14:20:15;;;;;;;;;3.67;3.67;;;;;;;;5096067;27;45480;-73
2022/06/23 14:22:45;;;;;;;;;2.33;2.00;;;;;;;;5096167;27;45688;-73
2022/06/23 14:25:15;;;;;;;;;2.00;2.00;;;;;;;;5095638;27;45845;-73
2022/06/23 14:27:55;;;;;;;;;2.33;2.33;;;;;;;;5097498;27;45477;-73
2022/06/23 14:30:40;;;;;;;;;2.00;2.00;;;;;;;;5096508;27;47477;-73
2022/06/23 14:33:18;;;;;;;;;3.67;3.67;;;;;;;;5095286;27;46060;-73
2022/06/23 14:36:01;;;;;;;;;5.00;4.00;;;;;;;;5095401;27;46559;-73
2022/06/23 14:38:36;;;;;;;;;4.00;4.00;;;;;;;;5095317;27;46192;-72
2022/06/23 14:41:08;;;;;;;;;2.00;2.00;;;;;;;;5094892;27;45293;-72
2022/06/23 14:44:03;;;;;;;;;3.00;3.00;;;;;;;;5094899;27;45518;-73
2022/06/23 14:46:31;;;;;;;;;3.00;3.00;;;;;;;;5071457;27;45693;-73
2022/06/23 14:49:06;;;;;;;;;3.67;3.00;;;;;;;;5092029;27;45543;-73
2022/06/23 14:51:49;;;;;;;;;3.67;3.67;;;;;;;;5087831;27;45452;-73
2022/06/23 14:54:17;;;;;;;;;2.33;2.33;;;;;;;;5097540;27;45459;-73
2022/06/23 14:56:49;;;;;;;;;3.00;3.00;;;;;;;;5094917;27;45702;-72
2022/06/23 14:59:20;;;;;;;;;5.00;4.00;;;;;;;;5093385;27;45406;-73
2022/06/23 15:02:01;;;;;;;;;3.33;3.33;;;;;;;;5096374;27;45593;-72
2022/06/23 15:04:38;;;;;;;;;3.00;3.00;;;;;;;;5095077;27;45450;-72
2022/06/23 15:07:15;;;;;;;;;4.00;3.00;;;;;;;;5087750;27;45398;-73
2022/06/23 15:09:57;;;;;;;;;3.33;2.33;;;;;;;;5093552;27;45701;-72
2022/06/23 15:12:32;;;;;;;;;3.33;2.00;;;;;;;;5088961;27;45516;-73
2022/06/23 15:15:09;;;;;;;;;3.00;2.00;;;;;;;;5095395;27;45617;-74
2022/06/23 15:17:54;;;;;;;;;3.00;3.00;;;;;;;;5092503;27;46527;-73
2022/06/23 15:20:37;;;;;;;;;5.00;2.67;;;;;;;;5094344;27;45743;-72
2022/06/23 15:23:18;;;;;;;;;3.33;3.00;;;;;;;;5094998;27;45237;-72
2022/06/23 15:25:58;;;;;;;;;3.67;3.67;;;;;;;;5094452;27;45268;-73